Time;durP1;ratioP1;P1;durP2;ratioP2;P2;SDS_P1;SDS_P2;PMS_P1;PMS_P2;Temp;Humidity;BMP_temperature;BMP_pressure;BME280_temperature;BME280_humidity;BME280_pressure;Samples;Min_cycle;Max_cycle;Signal;HPM_P1;HPM_P2
2023/12/21 00:00:10;;;;;;;1.20;0.50;;;17.00;55.40;;;;;;5112159;28;20181;-68
2023/12/21 00:02:36;;;;;;;2.05;0.30;;;17.00;55.40;;;;;;5112363;28;20065;-68
2023/12/21 00:05:02;;;;;;;1.75;0.25;;;17.00;55.50;;;;;;5094194;28;20130;-68
2023/12/21 00:07:28;;;;;;;1.90;0.20;;;17.00;55.50;;;;;;5112083;28;20125;-68
2023/12/21 00:10:03;;;;;;;1.00;0.20;;;17.00;55.50;;;;;;5112087;28;20132;-68
2023/12/21 00:12:32;;;;;;;1.27;0.40;;;17.00;55.60;;;;;;5112068;28;20040;-68
2023/12/21 00:14:57;;;;;;;0.52;0.10;;;16.90;55.50;;;;;;5094194;28;20058;-68
2023/12/21 00:17:23;;;;;;;1.05;0.28;;;16.90;55.50;;;;;;5093826;28;20474;-68
2023/12/21 00:19:48;;;;;;;0.55;0.10;;;17.00;55.60;;;;;;5111942;28;20096;-69
2023/12/21 00:22:14;;;;;;;1.48;0.10;;;16.90;55.60;;;;;;5094058;28;20097;-68
2023/12/21 00:24:40;;;;;;;0.30;0.10;;;16.90;55.60;;;;;;5093704;28;20482;-68
2023/12/21 00:27:05;;;;;;;1.33;0.10;;;16.90;55.60;;;;;;5093730;28;20194;-68
2023/12/21 00:29:34;;;;;;;1.67;0.20;;;16.90;55.70;;;;;;5093927;28;20036;-68
2023/12/21 00:32:00;;;;;;;0.73;0.15;;;16.90;55.70;;;;;;5093814;28;20126;-68
2023/12/21 00:34:25;;;;;;;1.58;0.17;;;16.90;55.80;;;;;;5111917;28;20111;-68
2023/12/21 00:36:51;;;;;;;0.95;0.20;;;16.90;55.80;;;;;;5093967;28;20420;-67
2023/12/21 00:39:17;;;;;;;1.23;0.10;;;16.90;55.80;;;;;;5111757;28;20028;-68
2023/12/21 00:41:42;;;;;;;1.25;0.10;;;16.90;55.80;;;;;;5111775;28;20100;-68
2023/12/21 00:44:11;;;;;;;0.82;0.20;;;16.80;55.80;;;;;;5093711;28;20071;-68
2023/12/21 00:46:37;;;;;;;0.50;0.10;;;16.80;55.80;;;;;;5076025;28;20080;-68
2023/12/21 00:49:02;;;;;;;1.25;0.20;;;16.90;55.90;;;;;;5070019;28;20060;-67
2023/12/21 00:51:31;;;;;;;1.33;0.20;;;16.80;55.90;;;;;;5071220;28;20115;-68
2023/12/21 00:53:56;;;;;;;1.77;0.20;;;16.80;55.90;;;;;;5070542;28;20056;-68
2023/12/21 00:56:22;;;;;;;1.33;0.20;;;16.80;55.90;;;;;;5073615;28;20059;-68
2023/12/21 00:58:48;;;;;;;0.40;0.10;;;16.80;55.90;;;;;;5073491;28;20040;-68
2023/12/21 01:01:13;;;;;;;1.27;0.30;;;16.80;56.00;;;;;;5073424;28;20123;-67
2023/12/21 01:03:39;;;;;;;1.40;0.13;;;16.80;56.00;;;;;;5073450;28;20052;-68
2023/12/21 01:06:05;;;;;;;1.08;0.20;;;16.80;56.00;;;;;;5074642;28;20402;-68
2023/12/21 01:08:33;;;;;;;1.33;0.20;;;16.80;56.00;;;;;;5074658;28;20042;-68
2023/12/21 01:11:00;;;;;;;0.77;0.10;;;16.80;56.10;;;;;;5106968;28;20063;-68
2023/12/21 01:13:26;;;;;;;0.80;0.20;;;17.20;55.70;;;;;;5074695;28;20119;-68
2023/12/21 01:15:52;;;;;;;0.45;0.10;;;17.50;54.60;;;;;;5073302;28;20123;-68
2023/12/21 01:18:17;;;;;;;0.45;0.10;;;17.90;53.70;;;;;;5074568;28;20119;-69
2023/12/21 01:20:46;;;;;;;0.68;0.10;;;18.30;52.70;;;;;;5073159;28;20036;-68
2023/12/21 01:23:11;;;;;;;0.50;0.10;;;18.80;51.60;;;;;;5073056;28;20047;-68
2023/12/21 01:25:37;;;;;;;1.13;0.10;;;19.30;50.40;;;;;;5074284;28;20036;-68
2023/12/21 01:28:03;;;;;;;0.68;0.10;;;19.90;49.20;;;;;;5072896;28;20050;-68
2023/12/21 01:30:29;;;;;;;1.00;0.20;;;20.50;48.00;;;;;;5074321;28;20047;-68
2023/12/21 01:32:54;;;;;;;1.10;0.10;;;21.00;46.80;;;;;;5073004;28;20579;-68
2023/12/21 01:35:20;;;;;;;0.55;0.20;;;21.60;45.60;;;;;;5073298;28;20036;-69
2023/12/21 01:37:46;;;;;;;0.90;0.20;;;22.10;44.70;;;;;;5074058;28;20048;-68
2023/12/21 01:40:12;;;;;;;1.08;0.10;;;22.50;43.90;;;;;;5073020;28;20505;-68
2023/12/21 01:42:37;;;;;;;1.00;0.10;;;22.80;43.30;;;;;;5072981;28;20091;-68
2023/12/21 01:45:03;;;;;;;0.30;0.10;;;23.10;42.70;;;;;;5080627;28;20474;-68
2023/12/21 01:47:30;;;;;;;0.60;0.20;;;23.30;42.20;;;;;;5114155;28;20135;-68
2023/12/21 01:49:57;;;;;;;0.68;0.10;;;23.60;41.90;;;;;;5096390;28;20393;-67
2023/12/21 01:52:23;;;;;;;0.30;0.10;;;23.70;41.50;;;;;;5096165;28;20039;-68
2023/12/21 01:54:48;;;;;;;0.57;0.20;;;23.90;41.20;;;;;;5096311;28;20039;-68
2023/12/21 01:57:17;;;;;;;0.80;0.10;;;24.10;41.00;;;;;;5096277;28;20104;-68
2023/12/21 01:59:43;;;;;;;0.50;0.10;;;24.20;40.80;;;;;;5096249;28;20477;-69
2023/12/21 02:02:11;;;;;;;1.17;0.20;;;24.20;40.50;;;;;;5095974;28;20046;-68
2023/12/21 02:04:37;;;;;;;0.63;0.20;;;24.40;40.50;;;;;;5095838;28;20043;-68
2023/12/21 02:07:05;;;;;;;0.43;0.10;;;24.50;40.20;;;;;;5095748;28;20043;-68
2023/12/21 02:09:34;;;;;;;0.52;0.10;;;24.50;40.10;;;;;;5095986;28;20100;-69
2023/12/21 02:11:59;;;;;;;0.70;0.10;;;24.60;40.00;;;;;;5095708;28;20035;-68
2023/12/21 02:14:25;;;;;;;0.93;0.10;;;24.60;39.80;;;;;;5095678;28;20039;-68
2023/12/21 02:16:59;;;;;;;3.30;0.10;;;24.70;39.70;;;;;;5095726;28;20039;-69
2023/12/21 02:19:25;;;;;;;0.95;0.10;;;24.80;39.60;;;;;;5113861;28;20097;-69
2023/12/21 02:21:54;;;;;;;0.98;0.10;;;24.90;39.60;;;;;;5113974;28;20478;-68
2023/12/21 02:24:20;;;;;;;0.50;0.10;;;25.00;39.50;;;;;;5095570;28;20039;-68
2023/12/21 02:26:46;;;;;;;0.80;0.10;;;25.00;39.40;;;;;;5095392;28;20543;-68
2023/12/21 02:29:11;;;;;;;0.60;0.10;;;25.10;39.30;;;;;;5113621;28;20076;-68
2023/12/21 02:31:37;;;;;;;0.93;0.10;;;25.10;39.20;;;;;;5113941;28;20122;-68
2023/12/21 02:34:06;;;;;;;1.27;0.38;;;25.20;39.20;;;;;;5095560;28;20035;-68
2023/12/21 02:36:32;;;;;;;1.08;0.17;;;25.20;39.10;;;;;;5095209;28;20452;-68
2023/12/21 02:39:00;;;;;;;0.65;0.10;;;25.20;39.00;;;;;;5095315;28;20496;-68
2023/12/21 02:41:26;;;;;;;1.08;0.20;;;25.30;39.00;;;;;;5095420;28;20085;-68
2023/12/21 02:43:51;;;;;;;0.55;0.20;;;25.30;39.00;;;;;;5095524;28;20048;-68
2023/12/21 02:46:19;;;;;;;0.50;0.10;;;25.40;39.00;;;;;;5079783;28;20052;-68
2023/12/21 02:48:45;;;;;;;0.57;0.10;;;25.40;38.80;;;;;;5074584;28;20043;-68
2023/12/21 02:51:11;;;;;;;1.80;0.30;;;25.40;38.80;;;;;;5075037;28;20040;-68
2023/12/21 02:53:37;;;;;;;2.00;0.20;;;25.40;38.70;;;;;;5074766;28;20075;-68
2023/12/21 02:56:03;;;;;;;2.15;0.10;;;25.50;38.70;;;;;;5074809;28;20387;-68
2023/12/21 02:58:29;;;;;;;2.85;0.20;;;25.50;38.70;;;;;;5074567;28;20089;-68
2023/12/21 03:00:54;;;;;;;0.75;0.17;;;25.50;38.60;;;;;;5074530;28;20039;-68
2023/12/21 03:03:20;;;;;;;0.93;0.10;;;25.60;38.60;;;;;;5074554;28;20043;-68
2023/12/21 03:05:46;;;;;;;1.30;0.20;;;25.60;38.60;;;;;;5074474;28;20044;-68
2023/12/21 03:08:12;;;;;;;0.52;0.10;;;25.60;38.50;;;;;;5092575;28;20046;-68
2023/12/21 03:10:37;;;;;;;1.65;0.20;;;25.60;38.50;;;;;;5074563;28;20372;-68
2023/12/21 03:13:04;;;;;;;1.08;0.17;;;25.60;38.50;;;;;;5092750;28;20479;-68
2023/12/21 03:15:31;;;;;;;0.70;0.10;;;25.70;38.50;;;;;;5074250;28;20032;-68
2023/12/21 03:17:57;;;;;;;0.98;0.20;;;25.70;38.50;;;;;;5073886;28;20124;-69
2023/12/21 03:20:25;;;;;;;1.02;0.20;;;25.70;38.50;;;;;;5092374;28;20109;-69
2023/12/21 03:22:51;;;;;;;1.40;0.10;;;25.60;38.50;;;;;;5092860;28;20036;-68
2023/12/21 03:25:17;;;;;;;0.75;0.10;;;25.50;38.50;;;;;;5092274;28;20119;-68
2023/12/21 03:27:42;;;;;;;0.65;0.10;;;25.50;38.70;;;;;;5092157;28;20040;-68
2023/12/21 03:30:08;;;;;;;0.75;0.17;;;25.50;38.80;;;;;;5074089;28;20040;-69
2023/12/21 03:32:36;;;;;;;1.23;0.20;;;25.40;38.90;;;;;;5074185;28;20051;-68
2023/12/21 03:35:07;;;;;;;1.80;0.13;;;25.30;39.00;;;;;;5074159;28;20524;-68
2023/12/21 03:37:33;;;;;;;1.08;0.10;;;25.30;39.10;;;;;;5074028;28;20640;-68
2023/12/21 03:40:02;;;;;;;1.17;0.13;;;25.40;39.00;;;;;;5073915;28;20134;-68
2023/12/21 03:42:30;;;;;;;0.75;0.10;;;25.40;38.90;;;;;;5073765;28;20398;-69
2023/12/21 03:44:56;;;;;;;1.65;0.20;;;25.50;38.80;;;;;;5077424;28;20558;-68
2023/12/21 03:47:24;;;;;;;0.80;0.10;;;25.60;38.70;;;;;;5093644;28;20130;-68
2023/12/21 03:49:50;;;;;;;1.08;0.10;;;25.70;38.70;;;;;;5094024;28;20089;-68
2023/12/21 03:52:15;;;;;;;0.80;0.20;;;25.70;38.60;;;;;;5093932;28;20035;-68
2023/12/21 03:54:41;;;;;;;1.30;0.20;;;25.80;38.50;;;;;;5094250;28;20088;-68
2023/12/21 03:57:10;;;;;;;0.52;0.10;;;25.80;38.50;;;;;;5093999;28;20436;-68
2023/12/21 03:59:36;;;;;;;0.50;0.10;;;25.90;38.50;;;;;;5094250;28;20116;-68
2023/12/21 04:02:02;;;;;;;0.88;0.10;;;25.90;38.40;;;;;;5112201;28;20532;-67
2023/12/21 04:04:27;;;;;;;0.90;0.10;;;25.90;38.30;;;;;;5094372;28;20039;-68
2023/12/21 04:06:53;;;;;;;2.05;0.20;;;25.90;38.30;;;;;;5093988;28;20035;-68
2023/12/21 04:09:19;;;;;;;0.93;0.10;;;25.90;38.40;;;;;;5094007;28;20042;-68
2023/12/21 04:11:44;;;;;;;0.57;0.20;;;25.90;38.30;;;;;;5093970;28;20451;-67
2023/12/21 04:14:10;;;;;;;1.13;0.20;;;25.90;38.40;;;;;;5094174;28;20031;-68
2023/12/21 04:16:36;;;;;;;0.80;0.17;;;25.90;38.30;;;;;;5093902;28;20390;-70
2023/12/21 04:19:03;;;;;;;0.75;0.20;;;25.90;38.30;;;;;;5093894;28;20050;-71
2023/12/21 04:21:32;;;;;;;0.98;0.20;;;25.90;38.80;;;;;;5112062;28;20479;-70
2023/12/21 04:23:58;;;;;;;0.70;0.10;;;25.90;38.40;;;;;;5111906;28;20490;-70
2023/12/21 04:26:23;;;;;;;1.40;0.10;;;25.90;38.40;;;;;;5111912;28;20086;-70
2023/12/21 04:28:52;;;;;;;1.38;0.20;;;25.90;38.40;;;;;;5094760;28;20039;-70
2023/12/21 04:31:20;;;;;;;0.60;0.10;;;25.90;38.40;;;;;;5115957;28;20043;-70
2023/12/21 04:33:49;;;;;;;1.42;0.20;;;25.90;38.40;;;;;;5097892;28;20043;-70
2023/12/21 04:36:16;;;;;;;2.42;0.55;;;25.90;38.40;;;;;;5097822;28;20398;-70
2023/12/21 04:38:41;;;;;;;1.33;0.30;;;25.90;38.40;;;;;;5097336;28;20040;-69
2023/12/21 04:41:07;;;;;;;0.82;0.10;;;25.90;38.50;;;;;;5097860;28;20040;-70
2023/12/21 04:43:33;;;;;;;0.90;0.10;;;25.90;38.50;;;;;;5115792;28;20475;-70
2023/12/21 04:45:58;;;;;;;1.23;0.10;;;25.90;38.50;;;;;;5090675;28;20430;-70
2023/12/21 04:48:24;;;;;;;0.88;0.17;;;25.90;38.50;;;;;;5073957;28;20488;-70
2023/12/21 04:50:50;;;;;;;0.82;0.10;;;25.90;38.50;;;;;;5073706;28;20048;-70
2023/12/21 04:53:15;;;;;;;1.08;0.32;;;25.90;38.50;;;;;;5073513;28;20075;-70
2023/12/21 04:55:41;;;;;;;1.10;0.50;;;25.90;38.50;;;;;;5075274;28;20388;-70
2023/12/21 04:58:07;;;;;;;0.88;0.20;;;25.90;38.60;;;;;;5074946;28;20036;-70
2023/12/21 05:00:33;;;;;;;0.77;0.17;;;25.90;38.50;;;;;;5073504;28;20510;-70
2023/12/21 05:02:58;;;;;;;0.60;0.10;;;25.90;38.50;;;;;;5073471;28;20044;-70
2023/12/21 05:05:24;;;;;;;1.80;0.20;;;25.90;38.50;;;;;;5073350;28;20178;-70
2023/12/21 05:07:50;;;;;;;1.27;0.20;;;25.90;38.50;;;;;;5073369;28;20090;-70
2023/12/21 05:10:16;;;;;;;1.55;0.25;;;25.90;38.40;;;;;;5073224;28;20487;-70
2023/12/21 05:12:45;;;;;;;2.00;0.20;;;25.90;38.40;;;;;;5073385;28;20072;-70
2023/12/21 05:15:11;;;;;;;0.67;0.10;;;26.00;38.40;;;;;;5073529;28;20044;-70
2023/12/21 05:17:39;;;;;;;0.68;0.10;;;26.00;38.40;;;;;;5073521;28;20107;-70
2023/12/21 05:20:05;;;;;;;1.30;0.17;;;26.00;38.40;;;;;;5073080;28;20055;-70
2023/12/21 05:22:31;;;;;;;0.93;0.10;;;26.00;38.30;;;;;;5074360;28;20082;-70
2023/12/21 05:24:56;;;;;;;0.63;0.13;;;26.10;38.20;;;;;;5074259;28;20471;-70
2023/12/21 05:27:22;;;;;;;1.00;0.10;;;26.10;38.20;;;;;;5074257;28;20150;-70
2023/12/21 05:29:48;;;;;;;1.15;0.10;;;26.20;38.20;;;;;;5073227;28;20479;-70
2023/12/21 05:32:13;;;;;;;0.73;0.10;;;26.20;38.20;;;;;;5073258;28;20051;-70
2023/12/21 05:34:39;;;;;;;1.15;0.17;;;26.20;38.20;;;;;;5073175;28;20052;-70
2023/12/21 05:37:07;;;;;;;1.05;0.10;;;26.10;38.10;;;;;;5074272;28;20123;-69
2023/12/21 05:39:35;;;;;;;0.52;0.10;;;26.10;38.20;;;;;;5072312;28;20131;-70
2023/12/21 05:42:01;;;;;;;0.82;0.10;;;26.10;38.30;;;;;;5072755;28;20090;-70
2023/12/21 05:44:26;;;;;;;0.60;0.10;;;26.00;38.30;;;;;;5074173;28;20041;-70
2023/12/21 05:46:52;;;;;;;0.60;0.20;;;26.00;38.40;;;;;;5095335;28;20048;-70
2023/12/21 05:49:17;;;;;;;0.88;0.10;;;25.90;38.40;;;;;;5114996;28;20469;-70
2023/12/21 05:51:43;;;;;;;1.17;0.17;;;25.90;38.50;;;;;;5096393;28;20425;-70
2023/12/21 05:54:09;;;;;;;1.17;0.13;;;25.80;38.60;;;;;;5114440;28;20035;-70
2023/12/21 05:56:36;;;;;;;1.08;0.20;;;25.80;38.70;;;;;;5114254;28;20413;-70
2023/12/21 05:59:01;;;;;;;1.50;0.13;;;25.70;38.80;;;;;;5096566;28;20048;-70
2023/12/21 06:01:27;;;;;;;1.25;0.15;;;25.70;38.90;;;;;;5095905;28;20051;-70
2023/12/21 06:03:53;;;;;;;0.70;0.20;;;25.60;38.90;;;;;;5096018;28;20040;-70
2023/12/21 06:06:18;;;;;;;1.52;0.20;;;25.60;38.90;;;;;;5095766;28;20054;-70
2023/12/21 06:08:44;;;;;;;0.93;0.20;;;25.60;38.90;;;;;;5114199;28;20050;-70
2023/12/21 06:11:10;;;;;;;0.50;0.13;;;25.60;39.00;;;;;;5095944;28;20052;-70
2023/12/21 06:13:35;;;;;;;2.05;0.68;;;25.60;39.00;;;;;;5095757;28;20046;-70
2023/12/21 06:16:01;;;;;;;1.77;0.10;;;25.60;39.00;;;;;;5095581;28;20043;-70
2023/12/21 06:18:27;;;;;;;0.82;0.10;;;25.70;39.10;;;;;;5114016;28;20075;-70
2023/12/21 06:20:52;;;;;;;0.82;0.20;;;25.70;39.00;;;;;;5113884;28;20061;-70
2023/12/21 06:23:18;;;;;;;0.52;0.08;;;25.70;38.90;;;;;;5113887;28;20478;-70
2023/12/21 06:25:44;;;;;;;1.90;0.38;;;25.70;38.90;;;;;;5113733;28;20043;-70
2023/12/21 06:28:10;;;;;;;1.38;0.40;;;25.70;39.00;;;;;;5095442;28;20051;-70
2023/12/21 06:30:36;;;;;;;0.73;0.10;;;25.70;38.90;;;;;;5095450;28;20043;-70
2023/12/21 06:33:01;;;;;;;1.38;0.20;;;25.70;38.90;;;;;;5095580;28;20036;-70
2023/12/21 06:35:27;;;;;;;1.42;0.10;;;25.80;38.90;;;;;;5095221;28;20047;-70
2023/12/21 06:37:53;;;;;;;0.95;0.10;;;25.70;38.80;;;;;;5113549;28;20074;-70
2023/12/21 06:40:18;;;;;;;1.42;0.13;;;25.70;38.80;;;;;;5095275;28;20508;-70
2023/12/21 06:42:44;;;;;;;0.82;0.25;;;25.70;38.80;;;;;;5095003;28;20043;-70
2023/12/21 06:45:11;;;;;;;0.95;0.20;;;25.70;38.80;;;;;;5090106;28;20075;-70
2023/12/21 06:47:37;;;;;;;0.63;0.10;;;25.70;38.90;;;;;;5074291;28;20411;-70
2023/12/21 06:50:03;;;;;;;1.92;0.20;;;25.70;39.00;;;;;;5066388;28;20040;-69
2023/12/21 06:52:30;;;;;;;0.77;0.10;;;25.70;39.00;;;;;;5062005;28;20423;-70
2023/12/21 06:54:56;;;;;;;0.73;0.13;;;25.70;39.00;;;;;;5074540;28;20079;-70
2023/12/21 06:57:23;;;;;;;0.88;0.10;;;25.60;39.00;;;;;;5073555;28;20052;-71
2023/12/21 06:59:48;;;;;;;1.13;0.10;;;25.60;39.10;;;;;;5074718;28;20050;-70
2023/12/21 07:02:14;;;;;;;1.13;0.10;;;25.50;39.10;;;;;;5071884;28;20036;-69
2023/12/21 07:04:46;;;;;;;1.75;0.57;;;25.50;39.90;;;;;;5089976;28;20105;-70
2023/12/21 07:07:13;;;;;;;0.90;0.10;;;25.50;39.20;;;;;;5068091;28;20054;-71
2023/12/21 07:09:38;;;;;;;0.70;0.10;;;25.50;39.30;;;;;;5087231;28;20036;-71
2023/12/21 07:12:05;;;;;;;0.90;0.10;;;25.50;39.30;;;;;;5068377;28;20040;-71
2023/12/21 07:14:31;;;;;;;1.23;0.15;;;25.40;39.40;;;;;;5063419;28;20036;-70
2023/12/21 07:16:57;;;;;;;0.80;0.10;;;25.40;39.40;;;;;;5068677;28;20109;-69
2023/12/21 07:19:22;;;;;;;3.03;0.20;;;25.40;39.40;;;;;;5052139;28;20530;-69
2023/12/21 07:21:48;;;;;;;2.28;0.40;;;25.30;39.70;;;;;;5065186;28;20050;-68
2023/12/21 07:24:14;;;;;;;1.20;0.43;;;25.10;40.00;;;;;;5065289;28;20055;-69
2023/12/21 07:26:39;;;;;;;0.85;0.10;;;24.80;40.30;;;;;;5063043;28;20039;-68
2023/12/21 07:29:05;;;;;;;1.00;0.40;;;24.70;40.60;;;;;;5104887;27;20086;-68
2023/12/21 07:31:30;;;;;;;2.55;0.20;;;24.70;40.70;;;;;;5070228;28;20036;-68
2023/12/21 07:33:56;;;;;;;1.33;0.20;;;24.70;40.90;;;;;;5061251;28;20032;-68
2023/12/21 07:36:22;;;;;;;2.13;0.22;;;24.70;40.90;;;;;;5059684;28;20070;-67
2023/12/21 07:38:47;;;;;;;1.98;0.20;;;24.60;40.90;;;;;;5074572;28;20036;-68
2023/12/21 07:41:13;;;;;;;4.22;0.20;;;24.60;41.00;;;;;;5075692;28;20036;-68
2023/12/21 07:43:41;;;;;;;4.90;0.20;;;24.60;41.10;;;;;;5056792;28;20048;-67
2023/12/21 07:46:08;;;;;;;1.88;0.22;;;24.50;41.20;;;;;;5076257;28;20442;-67
2023/12/21 07:48:34;;;;;;;2.60;0.30;;;24.50;41.20;;;;;;5058985;28;20048;-68
2023/12/21 07:50:59;;;;;;;4.70;0.30;;;24.50;41.30;;;;;;5089462;28;20788;-66
2023/12/21 07:53:25;;;;;;;1.83;0.25;;;24.50;41.20;;;;;;5056431;28;20104;-65
2023/12/21 07:55:51;;;;;;;4.47;0.52;;;24.60;41.40;;;;;;5057112;28;20074;-66
2023/12/21 07:58:16;;;;;;;0.88;0.20;;;24.70;41.60;;;;;;5077269;28;20040;-65
2023/12/21 08:00:42;;;;;;;1.30;0.10;;;24.60;41.70;;;;;;5083026;28;20090;-65
2023/12/21 08:03:08;;;;;;;0.88;0.32;;;24.70;41.60;;;;;;5078325;28;20032;-65
2023/12/21 08:05:33;;;;;;;2.90;0.30;;;24.70;41.50;;;;;;5084913;28;20044;-65
2023/12/21 08:07:59;;;;;;;0.80;0.15;;;24.70;41.40;;;;;;5061278;28;20138;-65
2023/12/21 08:10:25;;;;;;;1.98;0.30;;;24.80;41.40;;;;;;5060529;28;20068;-65
2023/12/21 08:12:51;;;;;;;2.60;0.30;;;24.70;41.40;;;;;;5061351;28;20099;-64
2023/12/21 08:15:16;;;;;;;1.55;0.20;;;24.70;41.30;;;;;;5063438;28;20503;-65
2023/12/21 08:17:44;;;;;;;0.88;0.13;;;24.80;41.30;;;;;;5064091;28;20225;-65
2023/12/21 08:20:12;;;;;;;2.22;0.10;;;24.80;41.40;;;;;;5081711;28;20044;-66
2023/12/21 08:22:38;;;;;;;1.35;0.22;;;24.80;41.40;;;;;;5069029;28;20557;-65
2023/12/21 08:25:04;;;;;;;0.60;0.10;;;24.80;41.40;;;;;;5083290;28;20376;-65
2023/12/21 08:27:30;;;;;;;0.60;0.10;;;24.70;41.40;;;;;;5088369;28;20051;-65
2023/12/21 08:29:55;;;;;;;1.05;0.10;;;24.70;41.40;;;;;;5070296;28;20044;-64
2023/12/21 08:32:21;;;;;;;0.77;0.10;;;24.80;41.50;;;;;;5054356;28;20044;-66
2023/12/21 08:34:46;;;;;;;1.17;0.10;;;24.80;41.50;;;;;;5093304;28;20037;-65
2023/12/21 08:37:12;;;;;;;1.63;0.20;;;24.80;41.40;;;;;;5057504;28;20051;-65
2023/12/21 08:39:39;;;;;;;1.15;0.10;;;24.80;41.40;;;;;;5089968;27;20072;-64
2023/12/21 08:42:08;;;;;;;1.48;0.17;;;24.80;41.40;;;;;;5076674;28;20051;-64
2023/12/21 08:44:35;;;;;;;1.48;0.20;;;24.90;41.50;;;;;;5075071;28;20041;-65
2023/12/21 08:47:01;;;;;;;0.77;0.10;;;24.90;41.50;;;;;;5074305;28;20061;-63
2023/12/21 08:49:27;;;;;;;1.75;0.30;;;24.90;41.60;;;;;;5076791;28;20051;-64
2023/12/21 08:51:53;;;;;;;1.30;0.10;;;24.90;41.60;;;;;;5062004;28;20427;-65
2023/12/21 08:54:19;;;;;;;0.60;0.10;;;24.90;41.60;;;;;;5090323;28;20040;-65
2023/12/21 08:56:45;;;;;;;0.57;0.10;;;24.90;41.70;;;;;;5078305;28;20158;-65
2023/12/21 08:59:11;;;;;;;0.75;0.20;;;24.90;41.80;;;;;;5061227;28;20123;-65
2023/12/21 09:01:37;;;;;;;5.70;0.10;;;24.90;41.80;;;;;;5060372;28;20063;-65
2023/12/21 09:04:04;;;;;;;1.02;0.10;;;24.90;41.80;;;;;;5058983;28;20040;-65
2023/12/21 09:06:31;;;;;;;3.13;0.10;;;24.90;41.60;;;;;;5061102;28;20054;-65
2023/12/21 09:08:57;;;;;;;0.50;0.10;;;25.00;41.60;;;;;;5089909;27;20040;-66
2023/12/21 09:11:23;;;;;;;1.17;0.10;;;25.00;41.40;;;;;;5064787;28;20074;-65
2023/12/21 09:13:49;;;;;;;1.85;0.13;;;25.10;41.40;;;;;;5076756;28;20434;-65
2023/12/21 09:16:15;;;;;;;1.15;0.15;;;25.10;41.20;;;;;;5057078;28;20454;-66
2023/12/21 09:18:43;;;;;;;0.50;0.10;;;25.10;41.20;;;;;;5076808;28;20043;-65
2023/12/21 09:21:10;;;;;;;0.63;0.05;;;25.20;41.30;;;;;;5077073;28;20279;-66
2023/12/21 09:23:35;;;;;;;2.90;0.25;;;25.10;41.20;;;;;;5080062;28;20078;-64
2023/12/21 09:26:01;;;;;;;1.33;0.15;;;25.10;41.30;;;;;;5092495;27;20068;-67
2023/12/21 09:28:27;;;;;;;3.33;0.20;;;25.00;41.50;;;;;;5077772;28;20039;-69
2023/12/21 09:30:56;;;;;;;2.92;0.30;;;25.00;41.70;;;;;;5092106;28;20050;-66
2023/12/21 09:33:22;;;;;;;1.00;0.20;;;24.90;42.20;;;;;;5087937;27;20036;-68
2023/12/21 09:35:54;;;;;;;4.40;0.40;;;24.90;42.70;;;;;;5062387;28;20040;-67
2023/12/21 09:38:20;;;;;;;5.88;0.20;;;24.80;42.90;;;;;;5073821;28;20047;-67
2023/12/21 09:40:46;;;;;;;3.38;0.32;;;24.90;43.20;;;;;;5077398;28;20455;-67
2023/12/21 09:43:17;;;;;;;3.60;0.20;;;24.90;43.40;;;;;;5079171;28;20032;-66
2023/12/21 09:45:45;;;;;;;2.08;0.20;;;24.90;43.40;;;;;;5057109;28;20036;-66
2023/12/21 09:48:13;;;;;;;3.55;0.93;;;24.90;43.40;;;;;;5058377;28;20048;-68
2023/12/21 09:50:45;;;;;;;4.25;0.40;;;24.90;43.60;;;;;;5060371;28;20059;-67
2023/12/21 09:53:13;;;;;;;3.63;0.50;;;24.90;43.90;;;;;;5079227;28;20043;-67
2023/12/21 09:55:43;;;;;;;4.30;0.20;;;24.90;43.80;;;;;;5074462;28;20142;-68
2023/12/21 09:58:11;;;;;;;5.80;0.30;;;24.80;43.60;;;;;;5076050;28;20040;-67
2023/12/21 10:00:38;;;;;;;3.22;0.13;;;24.80;43.50;;;;;;5075778;28;20439;-68
2023/12/21 10:03:06;;;;;;;7.88;0.52;;;24.80;43.50;;;;;;5058493;28;20051;-67
2023/12/21 10:05:33;;;;;;;5.13;0.20;;;24.80;43.60;;;;;;5073825;28;20044;-67
2023/12/21 10:07:59;;;;;;;1.75;0.20;;;24.80;43.60;;;;;;5074691;28;20066;-70
2023/12/21 10:10:25;;;;;;;1.23;0.10;;;24.70;43.70;;;;;;5055589;28;20043;-67
2023/12/21 10:12:52;;;;;;;1.65;0.68;;;24.50;43.80;;;;;;5076615;28;20032;-69
2023/12/21 10:15:20;;;;;;;3.78;0.20;;;24.30;44.20;;;;;;5064163;28;20115;-68
2023/12/21 10:17:46;;;;;;;1.17;0.25;;;24.10;44.60;;;;;;5074095;28;20060;-70
2023/12/21 10:20:14;;;;;;;0.80;0.20;;;23.90;45.00;;;;;;5064603;28;20094;-69
2023/12/21 10:22:43;;;;;;;2.60;0.20;;;23.70;45.30;;;;;;5059431;28;20071;-68
2023/12/21 10:25:10;;;;;;;3.00;0.52;;;23.50;45.60;;;;;;5074805;28;20119;-68
2023/12/21 10:27:36;;;;;;;2.08;0.30;;;23.30;46.10;;;;;;5062885;28;20048;-68
2023/12/21 10:30:03;;;;;;;3.63;0.40;;;23.10;46.50;;;;;;5059651;28;20086;-68
2023/12/21 10:32:30;;;;;;;2.78;0.32;;;22.90;46.90;;;;;;5066601;28;20056;-67
2023/12/21 10:34:58;;;;;;;5.97;0.45;;;22.70;47.20;;;;;;5075674;28;20364;-67
2023/12/21 10:37:24;;;;;;;3.97;0.40;;;22.60;47.60;;;;;;5060838;28;20054;-68
2023/12/21 10:39:51;;;;;;;2.47;0.45;;;22.40;48.10;;;;;;5062822;28;20048;-68
2023/12/21 10:42:17;;;;;;;4.07;0.40;;;22.30;48.50;;;;;;5090669;28;20044;-67
2023/12/21 10:44:44;;;;;;;3.95;0.30;;;22.20;48.70;;;;;;5061523;28;20390;-67
2023/12/21 10:47:11;;;;;;;2.35;0.40;;;22.00;48.90;;;;;;5057653;28;20052;-68
2023/12/21 10:49:42;;;;;;;2.67;0.28;;;22.00;49.20;;;;;;5071722;28;20040;-68
2023/12/21 10:52:10;;;;;;;5.50;0.85;;;22.00;49.40;;;;;;5054112;28;20042;-66
2023/12/21 10:54:37;;;;;;;3.42;0.40;;;22.00;49.50;;;;;;5086609;28;20115;-67
2023/12/21 10:57:07;;;;;;;3.63;0.57;;;22.10;49.40;;;;;;5073406;28;20048;-69
2023/12/21 10:59:37;;;;;;;5.72;0.30;;;22.10;49.30;;;;;;5087942;27;20051;-68
2023/12/21 11:02:03;;;;;;;3.70;0.30;;;22.20;49.00;;;;;;5058453;28;20052;-66
2023/12/21 11:04:30;;;;;;;2.03;0.32;;;22.40;48.70;;;;;;5056832;28;20048;-65
2023/12/21 11:06:57;;;;;;;3.55;0.60;;;22.50;48.30;;;;;;5073936;28;20044;-67
2023/12/21 11:09:25;;;;;;;5.55;0.70;;;22.60;48.00;;;;;;5087909;28;20071;-67
2023/12/21 11:11:57;;;;;;;3.08;0.30;;;22.80;47.70;;;;;;5058554;28;20032;-68
2023/12/21 11:14:22;;;;;;;3.40;0.82;;;22.90;47.60;;;;;;5056578;28;20082;-69
2023/12/21 11:16:54;;;;;;;3.20;0.40;;;22.90;47.30;;;;;;5055850;28;20467;-69
2023/12/21 11:19:27;;;;;;;2.22;0.30;;;22.90;48.10;;;;;;5086148;28;20735;-68
2023/12/21 11:21:55;;;;;;;3.08;0.50;;;22.80;47.40;;;;;;5052660;28;20055;-66
2023/12/21 11:24:22;;;;;;;2.90;0.40;;;22.80;47.50;;;;;;5074599;28;20147;-68
2023/12/21 11:26:49;;;;;;;2.13;0.20;;;22.70;47.40;;;;;;5055263;28;20048;-67
2023/12/21 11:29:24;;;;;;;2.97;0.25;;;22.70;47.40;;;;;;5059932;28;20071;-69
2023/12/21 11:31:49;;;;;;;5.60;0.70;;;22.70;47.30;;;;;;5076074;28;20091;-67
2023/12/21 11:34:20;;;;;;;3.83;0.50;;;22.60;47.20;;;;;;5056583;28;20081;-66
2023/12/21 11:36:50;;;;;;;4.03;0.50;;;22.60;47.10;;;;;;5077952;28;20110;-67
2023/12/21 11:39:18;;;;;;;1.63;0.30;;;22.60;47.00;;;;;;5057366;28;20040;-69
2023/12/21 11:42:00;;;;;;;7.32;0.52;;;22.50;47.00;;;;;;5058825;28;20048;-66
2023/12/21 11:44:47;;;;;;;5.40;0.47;;;22.50;47.00;;;;;;5074240;28;20680;-68
2023/12/21 11:47:14;;;;;;;4.28;0.75;;;22.50;47.30;;;;;;5074767;28;20056;-70
2023/12/21 11:49:43;;;;;;;5.15;0.60;;;22.50;48.00;;;;;;5062738;28;20063;-66
2023/12/21 11:52:09;;;;;;;3.00;0.73;;;22.60;47.20;;;;;;5073282;28;20044;-69
2023/12/21 11:54:35;;;;;;;5.13;1.48;;;22.60;47.30;;;;;;5057900;28;20048;-68
2023/12/21 11:57:16;;;;;;;2.22;0.47;;;22.60;47.30;;;;;;5088428;28;20044;-72
2023/12/21 11:59:42;;;;;;;2.20;0.40;;;22.60;47.40;;;;;;5057038;28;20517;-66
2023/12/21 12:02:11;;;;;;;4.63;1.02;;;22.70;47.50;;;;;;5077876;28;20405;-69
2023/12/21 12:04:38;;;;;;;3.40;0.35;;;22.70;47.50;;;;;;5061810;28;20479;-70
2023/12/21 12:07:06;;;;;;;4.90;0.43;;;22.70;47.60;;;;;;5074844;28;20045;-66
2023/12/21 12:09:32;;;;;;;3.35;0.70;;;22.70;47.50;;;;;;5059812;28;20506;-68
2023/12/21 12:11:59;;;;;;;3.03;0.60;;;22.70;47.60;;;;;;5074381;28;20382;-67
2023/12/21 12:14:25;;;;;;;4.15;0.40;;;22.70;47.60;;;;;;5055657;28;20055;-68
2023/12/21 12:16:51;;;;;;;2.58;0.63;;;22.70;47.50;;;;;;5043994;28;20036;-68
2023/12/21 12:19:17;;;;;;;5.00;0.35;;;22.80;47.60;;;;;;5056717;28;20048;-68
2023/12/21 12:21:43;;;;;;;6.00;1.25;;;22.80;47.40;;;;;;5062344;28;20047;-67
2023/12/21 12:24:08;;;;;;;9.35;0.70;;;22.80;47.30;;;;;;5053820;28;20044;-67
2023/12/21 12:26:37;;;;;;;2.42;0.20;;;22.80;47.30;;;;;;5075556;28;20495;-67
2023/12/21 12:29:03;;;;;;;6.93;0.55;;;22.80;47.20;;;;;;5059733;28;20043;-67
2023/12/21 12:31:29;;;;;;;2.90;0.93;;;22.80;47.20;;;;;;5071418;28;20550;-67
2023/12/21 12:33:55;;;;;;;5.55;0.73;;;22.80;47.40;;;;;;5056158;28;20050;-66
2023/12/21 12:36:21;;;;;;;10.82;0.70;;;22.80;47.40;;;;;;5090006;28;20472;-69
2023/12/21 12:38:48;;;;;;;8.38;1.42;;;22.70;47.40;;;;;;5058636;28;20553;-66
2023/12/21 12:41:23;;;;;;;7.32;0.82;;;22.70;47.40;;;;;;5075942;28;20041;-67
2023/12/21 12:43:49;;;;;;;8.50;1.27;;;22.60;46.90;;;;;;5043270;28;20040;-65